sensor_id;sensor_type;location;lat;lon;timestamp;P1;durP1;ratioP1;P2;durP2;ratioP2
77080;SDS011;66009;53.150;18.160;2023-04-06T00:00:08;39.90;;;16.50;;
77080;SDS011;66009;53.150;18.160;2023-04-06T00:02:55;45.40;;;18.10;;
77080;SDS011;66009;53.150;18.160;2023-04-06T00:05:22;32.20;;;14.80;;
77080;SDS011;66009;53.150;18.160;2023-04-06T00:07:49;28.40;;;12.10;;
77080;SDS011;66009;53.150;18.160;2023-04-06T00:10:16;29.40;;;11.90;;
77080;SDS011;66009;53.150;18.160;2023-04-06T00:12:43;20.10;;;9.30;;
77080;SDS011;66009;53.150;18.160;2023-04-06T00:15:10;17.30;;;8.30;;
77080;SDS011;66009;53.150;18.160;2023-04-06T00:17:37;14.00;;;7.90;;
77080;SDS011;66009;53.150;18.160;2023-04-06T00:20:04;14.20;;;7.00;;
77080;SDS011;66009;53.150;18.160;2023-04-06T00:22:31;12.40;;;6.70;;
77080;SDS011;66009;53.150;18.160;2023-04-06T00:24:57;12.00;;;7.00;;
77080;SDS011;66009;53.150;18.160;2023-04-06T00:27:24;13.50;;;6.80;;
77080;SDS011;66009;53.150;18.160;2023-04-06T00:29:51;15.80;;;7.20;;
77080;SDS011;66009;53.150;18.160;2023-04-06T00:32:18;15.50;;;8.20;;
77080;SDS011;66009;53.150;18.160;2023-04-06T00:34:44;16.00;;;6.90;;
77080;SDS011;66009;53.150;18.160;2023-04-06T00:37:11;13.30;;;7.10;;
77080;SDS011;66009;53.150;18.160;2023-04-06T00:39:38;14.60;;;6.60;;
77080;SDS011;66009;53.150;18.160;2023-04-06T00:42:10;12.90;;;6.50;;
77080;SDS011;66009;53.150;18.160;2023-04-06T00:44:41;14.80;;;6.40;;
77080;SDS011;66009;53.150;18.160;2023-04-06T00:47:08;17.20;;;7.00;;
77080;SDS011;66009;53.150;18.160;2023-04-06T00:49:35;12.10;;;5.80;;
77080;SDS011;66009;53.150;18.160;2023-04-06T00:52:02;13.20;;;6.10;;
77080;SDS011;66009;53.150;18.160;2023-04-06T00:54:29;16.70;;;6.60;;
77080;SDS011;66009;53.150;18.160;2023-04-06T00:56:56;14.60;;;6.40;;
77080;SDS011;66009;53.150;18.160;2023-04-06T00:59:23;14.50;;;6.70;;
77080;SDS011;66009;53.150;18.160;2023-04-06T01:01:50;14.90;;;7.70;;
77080;SDS011;66009;53.150;18.160;2023-04-06T01:04:28;14.60;;;7.00;;
77080;SDS011;66009;53.150;18.160;2023-04-06T01:06:55;13.30;;;6.40;;
77080;SDS011;66009;53.150;18.160;2023-04-06T01:09:24;12.40;;;6.00;;
77080;SDS011;66009;53.150;18.160;2023-04-06T01:11:52;12.00;;;6.10;;
77080;SDS011;66009;53.150;18.160;2023-04-06T01:14:20;11.80;;;5.60;;
77080;SDS011;66009;53.150;18.160;2023-04-06T01:16:57;11.80;;;5.80;;
77080;SDS011;66009;53.150;18.160;2023-04-06T01:19:29;11.80;;;5.40;;
77080;SDS011;66009;53.150;18.160;2023-04-06T01:21:56;11.10;;;5.40;;
77080;SDS011;66009;53.150;18.160;2023-04-06T01:24:32;11.50;;;5.10;;
77080;SDS011;66009;53.150;18.160;2023-04-06T01:27:12;13.30;;;5.60;;
77080;SDS011;66009;53.150;18.160;2023-04-06T01:30:00;11.50;;;5.10;;
77080;SDS011;66009;53.150;18.160;2023-04-06T01:32:41;11.00;;;4.80;;
77080;SDS011;66009;53.150;18.160;2023-04-06T01:35:08;11.80;;;5.30;;
77080;SDS011;66009;53.150;18.160;2023-04-06T01:37:37;14.70;;;5.60;;
77080;SDS011;66009;53.150;18.160;2023-04-06T01:40:04;10.90;;;4.90;;
77080;SDS011;66009;53.150;18.160;2023-04-06T01:42:44;9.90;;;4.50;;
77080;SDS011;66009;53.150;18.160;2023-04-06T01:45:12;11.30;;;5.10;;
77080;SDS011;66009;53.150;18.160;2023-04-06T01:47:39;14.80;;;5.70;;
77080;SDS011;66009;53.150;18.160;2023-04-06T01:50:06;14.10;;;6.90;;
77080;SDS011;66009;53.150;18.160;2023-04-06T01:52:36;13.40;;;5.90;;
77080;SDS011;66009;53.150;18.160;2023-04-06T01:55:04;12.70;;;6.30;;
77080;SDS011;66009;53.150;18.160;2023-04-06T01:57:52;13.80;;;7.10;;
77080;SDS011;66009;53.150;18.160;2023-04-06T02:00:29;15.00;;;7.50;;
77080;SDS011;66009;53.150;18.160;2023-04-06T02:02:56;15.10;;;6.70;;
77080;SDS011;66009;53.150;18.160;2023-04-06T02:05:25;10.50;;;5.60;;
77080;SDS011;66009;53.150;18.160;2023-04-06T02:07:53;11.40;;;5.20;;
77080;SDS011;66009;53.150;18.160;2023-04-06T02:10:23;10.20;;;4.40;;
77080;SDS011;66009;53.150;18.160;2023-04-06T02:12:50;10.70;;;4.80;;
77080;SDS011;66009;53.150;18.160;2023-04-06T02:15:22;9.20;;;4.60;;
77080;SDS011;66009;53.150;18.160;2023-04-06T02:17:48;9.80;;;4.80;;
77080;SDS011;66009;53.150;18.160;2023-04-06T02:20:15;11.50;;;4.50;;
77080;SDS011;66009;53.150;18.160;2023-04-06T02:22:41;10.50;;;4.60;;
77080;SDS011;66009;53.150;18.160;2023-04-06T02:25:08;11.60;;;5.30;;
77080;SDS011;66009;53.150;18.160;2023-04-06T02:27:35;10.70;;;4.40;;
77080;SDS011;66009;53.150;18.160;2023-04-06T02:30:03;12.10;;;4.70;;
77080;SDS011;66009;53.150;18.160;2023-04-06T02:32:30;9.90;;;5.30;;
77080;SDS011;66009;53.150;18.160;2023-04-06T02:34:57;11.50;;;5.20;;
77080;SDS011;66009;53.150;18.160;2023-04-06T02:37:24;10.80;;;5.40;;
77080;SDS011;66009;53.150;18.160;2023-04-06T02:39:50;11.50;;;5.40;;
77080;SDS011;66009;53.150;18.160;2023-04-06T02:42:17;12.50;;;5.50;;
77080;SDS011;66009;53.150;18.160;2023-04-06T02:44:43;12.80;;;5.20;;
77080;SDS011;66009;53.150;18.160;2023-04-06T02:47:11;11.10;;;5.70;;
77080;SDS011;66009;53.150;18.160;2023-04-06T02:49:38;10.60;;;5.20;;
77080;SDS011;66009;53.150;18.160;2023-04-06T02:52:04;14.00;;;6.40;;
77080;SDS011;66009;53.150;18.160;2023-04-06T02:54:34;13.80;;;5.80;;
77080;SDS011;66009;53.150;18.160;2023-04-06T02:57:01;12.00;;;5.40;;
77080;SDS011;66009;53.150;18.160;2023-04-06T02:59:35;12.20;;;5.40;;
77080;SDS011;66009;53.150;18.160;2023-04-06T03:02:07;8.30;;;4.10;;
77080;SDS011;66009;53.150;18.160;2023-04-06T03:04:34;10.00;;;4.40;;
77080;SDS011;66009;53.150;18.160;2023-04-06T03:07:02;12.30;;;5.10;;
77080;SDS011;66009;53.150;18.160;2023-04-06T03:09:37;7.40;;;4.20;;
77080;SDS011;66009;53.150;18.160;2023-04-06T03:12:05;11.80;;;4.10;;
77080;SDS011;66009;53.150;18.160;2023-04-06T03:14:35;16.50;;;5.60;;
77080;SDS011;66009;53.150;18.160;2023-04-06T03:17:03;10.00;;;4.80;;
77080;SDS011;66009;53.150;18.160;2023-04-06T03:19:29;12.20;;;5.40;;
77080;SDS011;66009;53.150;18.160;2023-04-06T03:21:57;10.70;;;4.90;;
77080;SDS011;66009;53.150;18.160;2023-04-06T03:24:24;9.80;;;4.90;;
77080;SDS011;66009;53.150;18.160;2023-04-06T03:26:50;12.80;;;6.00;;
77080;SDS011;66009;53.150;18.160;2023-04-06T03:29:18;13.50;;;5.60;;
77080;SDS011;66009;53.150;18.160;2023-04-06T03:31:44;11.10;;;5.20;;
77080;SDS011;66009;53.150;18.160;2023-04-06T03:34:40;11.40;;;5.20;;
77080;SDS011;66009;53.150;18.160;2023-04-06T03:37:08;10.10;;;5.40;;
77080;SDS011;66009;53.150;18.160;2023-04-06T03:39:35;11.90;;;5.20;;
77080;SDS011;66009;53.150;18.160;2023-04-06T03:42:03;10.80;;;5.40;;
77080;SDS011;66009;53.150;18.160;2023-04-06T03:44:34;10.80;;;5.30;;
77080;SDS011;66009;53.150;18.160;2023-04-06T03:47:01;11.80;;;5.90;;
77080;SDS011;66009;53.150;18.160;2023-04-06T03:49:28;14.50;;;7.50;;
77080;SDS011;66009;53.150;18.160;2023-04-06T03:51:56;13.10;;;7.40;;
77080;SDS011;66009;53.150;18.160;2023-04-06T03:54:23;12.10;;;6.00;;
77080;SDS011;66009;53.150;18.160;2023-04-06T03:56:49;13.60;;;6.50;;
77080;SDS011;66009;53.150;18.160;2023-04-06T03:59:16;10.00;;;4.80;;
77080;SDS011;66009;53.150;18.160;2023-04-06T04:01:43;12.50;;;5.30;;
77080;SDS011;66009;53.150;18.160;2023-04-06T04:04:09;9.50;;;5.00;;
77080;SDS011;66009;53.150;18.160;2023-04-06T04:06:36;10.80;;;5.20;;
77080;SDS011;66009;53.150;18.160;2023-04-06T04:09:03;7.70;;;3.80;;
77080;SDS011;66009;53.150;18.160;2023-04-06T04:11:29;11.30;;;5.10;;
77080;SDS011;66009;53.150;18.160;2023-04-06T04:13:58;17.00;;;6.10;;
77080;SDS011;66009;53.150;18.160;2023-04-06T04:16:24;11.00;;;5.60;;
77080;SDS011;66009;53.150;18.160;2023-04-06T04:18:51;11.30;;;5.80;;
77080;SDS011;66009;53.150;18.160;2023-04-06T04:21:17;12.20;;;6.50;;
77080;SDS011;66009;53.150;18.160;2023-04-06T04:23:44;15.00;;;6.60;;
77080;SDS011;66009;53.150;18.160;2023-04-06T04:26:11;13.30;;;6.00;;
77080;SDS011;66009;53.150;18.160;2023-04-06T04:28:38;16.30;;;6.80;;
77080;SDS011;66009;53.150;18.160;2023-04-06T04:31:04;11.30;;;5.40;;
77080;SDS011;66009;53.150;18.160;2023-04-06T04:33:32;19.00;;;8.80;;
77080;SDS011;66009;53.150;18.160;2023-04-06T04:36:01;22.20;;;9.00;;
77080;SDS011;66009;53.150;18.160;2023-04-06T04:38:29;18.30;;;9.40;;
77080;SDS011;66009;53.150;18.160;2023-04-06T04:40:56;20.40;;;8.30;;
77080;SDS011;66009;53.150;18.160;2023-04-06T04:43:22;23.80;;;9.50;;
77080;SDS011;66009;53.150;18.160;2023-04-06T04:45:49;18.30;;;7.80;;
77080;SDS011;66009;53.150;18.160;2023-04-06T04:48:34;19.30;;;8.40;;
77080;SDS011;66009;53.150;18.160;2023-04-06T04:51:03;21.60;;;9.60;;
77080;SDS011;66009;53.150;18.160;2023-04-06T04:53:39;22.90;;;10.20;;
77080;SDS011;66009;53.150;18.160;2023-04-06T04:56:15;30.00;;;11.70;;
77080;SDS011;66009;53.150;18.160;2023-04-06T04:58:41;27.60;;;11.30;;
77080;SDS011;66009;53.150;18.160;2023-04-06T05:01:08;23.60;;;9.70;;
77080;SDS011;66009;53.150;18.160;2023-04-06T05:03:35;23.60;;;10.00;;
77080;SDS011;66009;53.150;18.160;2023-04-06T05:06:06;25.70;;;10.90;;
77080;SDS011;66009;53.150;18.160;2023-04-06T05:08:34;34.10;;;12.80;;
77080;SDS011;66009;53.150;18.160;2023-04-06T05:11:01;34.30;;;14.10;;
77080;SDS011;66009;53.150;18.160;2023-04-06T05:13:30;33.80;;;15.10;;
77080;SDS011;66009;53.150;18.160;2023-04-06T05:15:58;29.90;;;13.70;;
77080;SDS011;66009;53.150;18.160;2023-04-06T05:18:30;33.90;;;15.30;;
77080;SDS011;66009;53.150;18.160;2023-04-06T05:20:57;26.70;;;13.60;;
77080;SDS011;66009;53.150;18.160;2023-04-06T05:23:29;27.30;;;12.80;;
77080;SDS011;66009;53.150;18.160;2023-04-06T05:25:57;27.70;;;12.90;;
77080;SDS011;66009;53.150;18.160;2023-04-06T05:28:24;26.50;;;11.50;;
77080;SDS011;66009;53.150;18.160;2023-04-06T05:30:50;21.70;;;10.20;;
77080;SDS011;66009;53.150;18.160;2023-04-06T05:33:18;27.10;;;11.80;;
77080;SDS011;66009;53.150;18.160;2023-04-06T05:35:56;28.10;;;11.90;;
77080;SDS011;66009;53.150;18.160;2023-04-06T05:38:24;22.20;;;10.10;;
77080;SDS011;66009;53.150;18.160;2023-04-06T05:40:51;24.60;;;12.50;;
77080;SDS011;66009;53.150;18.160;2023-04-06T05:43:18;28.80;;;12.90;;
77080;SDS011;66009;53.150;18.160;2023-04-06T05:45:47;28.60;;;12.10;;
77080;SDS011;66009;53.150;18.160;2023-04-06T05:48:13;38.40;;;15.20;;
77080;SDS011;66009;53.150;18.160;2023-04-06T05:50:40;27.20;;;13.00;;
77080;SDS011;66009;53.150;18.160;2023-04-06T05:53:07;32.70;;;14.10;;
77080;SDS011;66009;53.150;18.160;2023-04-06T05:55:38;27.00;;;11.50;;
77080;SDS011;66009;53.150;18.160;2023-04-06T05:58:17;32.60;;;13.00;;
77080;SDS011;66009;53.150;18.160;2023-04-06T06:00:43;30.10;;;12.60;;
77080;SDS011;66009;53.150;18.160;2023-04-06T06:05:41;37.80;;;15.20;;
77080;SDS011;66009;53.150;18.160;2023-04-06T06:08:12;30.30;;;14.80;;
77080;SDS011;66009;53.150;18.160;2023-04-06T06:10:39;27.80;;;13.80;;
77080;SDS011;66009;53.150;18.160;2023-04-06T06:13:07;25.50;;;13.00;;
77080;SDS011;66009;53.150;18.160;2023-04-06T06:15:33;25.50;;;13.20;;
77080;SDS011;66009;53.150;18.160;2023-04-06T06:18:02;31.50;;;16.20;;
77080;SDS011;66009;53.150;18.160;2023-04-06T06:20:29;33.60;;;16.40;;
77080;SDS011;66009;53.150;18.160;2023-04-06T06:22:58;29.40;;;14.00;;
77080;SDS011;66009;53.150;18.160;2023-04-06T06:25:25;44.20;;;18.20;;
77080;SDS011;66009;53.150;18.160;2023-04-06T06:27:52;54.30;;;21.70;;
77080;SDS011;66009;53.150;18.160;2023-04-06T06:30:19;56.00;;;22.40;;
77080;SDS011;66009;53.150;18.160;2023-04-06T06:32:46;56.10;;;21.50;;
77080;SDS011;66009;53.150;18.160;2023-04-06T06:35:12;54.90;;;24.10;;
77080;SDS011;66009;53.150;18.160;2023-04-06T06:37:39;53.50;;;22.40;;
77080;SDS011;66009;53.150;18.160;2023-04-06T06:40:10;58.70;;;22.40;;
77080;SDS011;66009;53.150;18.160;2023-04-06T06:42:40;62.50;;;24.80;;
77080;SDS011;66009;53.150;18.160;2023-04-06T06:45:18;59.20;;;26.40;;
77080;SDS011;66009;53.150;18.160;2023-04-06T06:47:46;62.50;;;26.40;;
77080;SDS011;66009;53.150;18.160;2023-04-06T06:50:13;61.50;;;26.20;;
77080;SDS011;66009;53.150;18.160;2023-04-06T06:52:39;53.30;;;24.90;;
77080;SDS011;66009;53.150;18.160;2023-04-06T06:55:08;50.50;;;21.50;;
77080;SDS011;66009;53.150;18.160;2023-04-06T06:57:35;52.70;;;24.90;;
77080;SDS011;66009;53.150;18.160;2023-04-06T07:00:02;43.20;;;21.30;;
77080;SDS011;66009;53.150;18.160;2023-04-06T07:02:31;49.50;;;19.70;;
77080;SDS011;66009;53.150;18.160;2023-04-06T07:04:58;33.10;;;15.90;;
77080;SDS011;66009;53.150;18.160;2023-04-06T07:07:24;34.50;;;15.80;;
77080;SDS011;66009;53.150;18.160;2023-04-06T07:09:51;28.80;;;13.50;;
77080;SDS011;66009;53.150;18.160;2023-04-06T07:12:18;26.00;;;12.00;;
77080;SDS011;66009;53.150;18.160;2023-04-06T07:14:44;21.70;;;11.50;;
77080;SDS011;66009;53.150;18.160;2023-04-06T07:17:13;19.40;;;10.70;;
77080;SDS011;66009;53.150;18.160;2023-04-06T07:19:39;20.60;;;10.70;;
77080;SDS011;66009;53.150;18.160;2023-04-06T07:22:07;19.80;;;10.80;;
77080;SDS011;66009;53.150;18.160;2023-04-06T07:24:33;20.50;;;10.80;;
77080;SDS011;66009;53.150;18.160;2023-04-06T07:27:00;18.40;;;8.90;;
77080;SDS011;66009;53.150;18.160;2023-04-06T07:29:27;15.10;;;9.00;;
77080;SDS011;66009;53.150;18.160;2023-04-06T07:31:54;14.80;;;7.60;;
77080;SDS011;66009;53.150;18.160;2023-04-06T07:34:21;15.20;;;8.10;;
77080;SDS011;66009;53.150;18.160;2023-04-06T07:36:49;14.30;;;8.40;;
77080;SDS011;66009;53.150;18.160;2023-04-06T07:39:15;16.00;;;9.50;;
77080;SDS011;66009;53.150;18.160;2023-04-06T07:41:42;15.10;;;8.20;;
77080;SDS011;66009;53.150;18.160;2023-04-06T07:44:09;12.10;;;6.90;;
77080;SDS011;66009;53.150;18.160;2023-04-06T07:46:35;14.10;;;6.20;;
77080;SDS011;66009;53.150;18.160;2023-04-06T07:49:02;10.00;;;5.20;;
77080;SDS011;66009;53.150;18.160;2023-04-06T07:51:30;9.70;;;4.90;;
77080;SDS011;66009;53.150;18.160;2023-04-06T07:53:57;9.90;;;5.50;;
77080;SDS011;66009;53.150;18.160;2023-04-06T07:56:24;9.40;;;5.60;;
77080;SDS011;66009;53.150;18.160;2023-04-06T07:58:51;9.20;;;4.90;;
77080;SDS011;66009;53.150;18.160;2023-04-06T08:01:18;8.00;;;4.30;;
77080;SDS011;66009;53.150;18.160;2023-04-06T08:03:44;6.40;;;3.30;;
77080;SDS011;66009;53.150;18.160;2023-04-06T08:06:11;6.00;;;3.50;;
77080;SDS011;66009;53.150;18.160;2023-04-06T08:08:38;5.50;;;2.90;;
77080;SDS011;66009;53.150;18.160;2023-04-06T08:11:04;4.70;;;2.40;;
77080;SDS011;66009;53.150;18.160;2023-04-06T08:13:31;4.30;;;2.40;;
77080;SDS011;66009;53.150;18.160;2023-04-06T08:15:58;8.00;;;3.10;;
77080;SDS011;66009;53.150;18.160;2023-04-06T08:18:25;5.10;;;2.30;;
77080;SDS011;66009;53.150;18.160;2023-04-06T08:20:51;4.50;;;2.40;;
77080;SDS011;66009;53.150;18.160;2023-04-06T08:23:18;4.50;;;2.20;;
77080;SDS011;66009;53.150;18.160;2023-04-06T08:25:45;5.00;;;2.30;;
77080;SDS011;66009;53.150;18.160;2023-04-06T08:28:11;6.10;;;2.80;;
77080;SDS011;66009;53.150;18.160;2023-04-06T08:30:41;6.30;;;2.70;;
77080;SDS011;66009;53.150;18.160;2023-04-06T08:33:09;5.70;;;2.70;;
77080;SDS011;66009;53.150;18.160;2023-04-06T08:35:36;6.90;;;2.50;;
77080;SDS011;66009;53.150;18.160;2023-04-06T08:38:02;5.00;;;2.40;;
77080;SDS011;66009;53.150;18.160;2023-04-06T08:40:29;5.80;;;2.60;;
77080;SDS011;66009;53.150;18.160;2023-04-06T08:42:56;5.60;;;2.40;;
77080;SDS011;66009;53.150;18.160;2023-04-06T08:45:26;5.50;;;2.80;;
77080;SDS011;66009;53.150;18.160;2023-04-06T08:47:52;5.70;;;2.90;;
77080;SDS011;66009;53.150;18.160;2023-04-06T08:50:20;5.50;;;2.70;;
77080;SDS011;66009;53.150;18.160;2023-04-06T08:52:47;6.40;;;3.40;;
77080;SDS011;66009;53.150;18.160;2023-04-06T08:55:15;7.40;;;3.70;;
77080;SDS011;66009;53.150;18.160;2023-04-06T08:57:42;6.60;;;3.60;;
77080;SDS011;66009;53.150;18.160;2023-04-06T09:00:10;8.30;;;4.50;;
77080;SDS011;66009;53.150;18.160;2023-04-06T09:02:42;8.40;;;4.40;;
77080;SDS011;66009;53.150;18.160;2023-04-06T09:05:09;6.80;;;4.20;;
77080;SDS011;66009;53.150;18.160;2023-04-06T09:07:36;7.60;;;4.60;;
77080;SDS011;66009;53.150;18.160;2023-04-06T09:10:04;8.90;;;4.40;;
77080;SDS011;66009;53.150;18.160;2023-04-06T09:12:32;7.50;;;4.30;;
77080;SDS011;66009;53.150;18.160;2023-04-06T09:14:59;17.50;;;5.60;;
77080;SDS011;66009;53.150;18.160;2023-04-06T09:17:31;15.10;;;5.90;;
77080;SDS011;66009;53.150;18.160;2023-04-06T09:20:00;8.10;;;3.90;;
77080;SDS011;66009;53.150;18.160;2023-04-06T09:22:38;8.40;;;4.50;;
77080;SDS011;66009;53.150;18.160;2023-04-06T09:25:08;9.20;;;4.90;;
77080;SDS011;66009;53.150;18.160;2023-04-06T09:27:35;9.70;;;5.20;;
77080;SDS011;66009;53.150;18.160;2023-04-06T09:32:32;7.50;;;3.80;;
77080;SDS011;66009;53.150;18.160;2023-04-06T09:35:05;6.90;;;3.90;;
77080;SDS011;66009;53.150;18.160;2023-04-06T09:37:33;6.50;;;3.90;;
77080;SDS011;66009;53.150;18.160;2023-04-06T09:40:03;9.90;;;4.70;;
77080;SDS011;66009;53.150;18.160;2023-04-06T09:42:31;5.10;;;3.40;;
77080;SDS011;66009;53.150;18.160;2023-04-06T09:44:58;6.40;;;3.70;;
77080;SDS011;66009;53.150;18.160;2023-04-06T09:47:25;7.40;;;4.20;;
77080;SDS011;66009;53.150;18.160;2023-04-06T09:49:56;8.60;;;3.90;;
77080;SDS011;66009;53.150;18.160;2023-04-06T09:52:27;8.90;;;5.00;;
77080;SDS011;66009;53.150;18.160;2023-04-06T09:55:00;8.10;;;4.50;;
77080;SDS011;66009;53.150;18.160;2023-04-06T09:57:32;7.30;;;3.90;;
77080;SDS011;66009;53.150;18.160;2023-04-06T10:00:08;6.60;;;3.90;;
77080;SDS011;66009;53.150;18.160;2023-04-06T10:02:39;8.80;;;4.90;;
77080;SDS011;66009;53.150;18.160;2023-04-06T10:07:43;7.30;;;4.10;;
77080;SDS011;66009;53.150;18.160;2023-04-06T10:10:11;6.60;;;3.10;;
77080;SDS011;66009;53.150;18.160;2023-04-06T10:12:40;5.70;;;3.70;;
77080;SDS011;66009;53.150;18.160;2023-04-06T10:15:17;7.10;;;4.10;;
77080;SDS011;66009;53.150;18.160;2023-04-06T10:17:44;8.10;;;4.70;;
77080;SDS011;66009;53.150;18.160;2023-04-06T10:20:16;6.70;;;3.80;;
77080;SDS011;66009;53.150;18.160;2023-04-06T10:25:36;8.60;;;4.00;;
77080;SDS011;66009;53.150;18.160;2023-04-06T10:28:08;7.80;;;4.60;;
77080;SDS011;66009;53.150;18.160;2023-04-06T10:30:41;6.20;;;3.80;;
77080;SDS011;66009;53.150;18.160;2023-04-06T10:33:16;10.00;;;4.30;;
77080;SDS011;66009;53.150;18.160;2023-04-06T10:35:44;8.70;;;3.90;;
77080;SDS011;66009;53.150;18.160;2023-04-06T10:38:11;9.40;;;5.50;;
77080;SDS011;66009;53.150;18.160;2023-04-06T10:40:41;7.40;;;4.70;;
77080;SDS011;66009;53.150;18.160;2023-04-06T10:43:12;6.70;;;4.70;;
77080;SDS011;66009;53.150;18.160;2023-04-06T10:45:40;6.90;;;4.80;;
77080;SDS011;66009;53.150;18.160;2023-04-06T10:48:19;6.70;;;4.20;;
77080;SDS011;66009;53.150;18.160;2023-04-06T10:50:49;6.00;;;3.80;;
77080;SDS011;66009;53.150;18.160;2023-04-06T10:53:26;5.80;;;3.50;;
77080;SDS011;66009;53.150;18.160;2023-04-06T10:55:54;6.20;;;4.50;;
77080;SDS011;66009;53.150;18.160;2023-04-06T10:58:26;6.60;;;4.00;;
77080;SDS011;66009;53.150;18.160;2023-04-06T11:00:53;5.50;;;3.70;;
77080;SDS011;66009;53.150;18.160;2023-04-06T11:03:21;5.60;;;3.50;;
77080;SDS011;66009;53.150;18.160;2023-04-06T11:05:48;6.90;;;3.60;;
77080;SDS011;66009;53.150;18.160;2023-04-06T11:08:32;8.70;;;4.60;;
77080;SDS011;66009;53.150;18.160;2023-04-06T11:11:09;5.80;;;3.30;;
77080;SDS011;66009;53.150;18.160;2023-04-06T11:13:42;8.10;;;4.90;;
77080;SDS011;66009;53.150;18.160;2023-04-06T11:16:29;9.50;;;4.90;;
77080;SDS011;66009;53.150;18.160;2023-04-06T11:18:59;5.70;;;3.00;;
77080;SDS011;66009;53.150;18.160;2023-04-06T11:21:31;4.90;;;3.10;;
77080;SDS011;66009;53.150;18.160;2023-04-06T11:29:10;5.90;;;3.60;;
77080;SDS011;66009;53.150;18.160;2023-04-06T11:31:45;5.10;;;3.10;;
77080;SDS011;66009;53.150;18.160;2023-04-06T11:34:17;5.30;;;3.30;;
77080;SDS011;66009;53.150;18.160;2023-04-06T11:36:46;5.10;;;3.00;;
77080;SDS011;66009;53.150;18.160;2023-04-06T11:39:18;4.90;;;3.10;;
77080;SDS011;66009;53.150;18.160;2023-04-06T11:41:49;5.60;;;2.90;;
77080;SDS011;66009;53.150;18.160;2023-04-06T11:44:28;4.80;;;3.00;;
77080;SDS011;66009;53.150;18.160;2023-04-06T11:46:58;5.10;;;2.80;;
77080;SDS011;66009;53.150;18.160;2023-04-06T11:49:27;5.50;;;3.20;;
77080;SDS011;66009;53.150;18.160;2023-04-06T11:51:55;6.20;;;3.20;;
77080;SDS011;66009;53.150;18.160;2023-04-06T11:54:29;7.10;;;4.10;;
77080;SDS011;66009;53.150;18.160;2023-04-06T11:57:04;6.40;;;3.70;;
77080;SDS011;66009;53.150;18.160;2023-04-06T11:59:31;5.50;;;3.30;;
77080;SDS011;66009;53.150;18.160;2023-04-06T12:04:26;6.00;;;3.30;;
77080;SDS011;66009;53.150;18.160;2023-04-06T12:06:54;4.80;;;3.30;;
77080;SDS011;66009;53.150;18.160;2023-04-06T12:09:21;5.40;;;3.70;;
77080;SDS011;66009;53.150;18.160;2023-04-06T12:11:48;5.80;;;3.20;;
77080;SDS011;66009;53.150;18.160;2023-04-06T12:14:14;5.00;;;3.20;;
77080;SDS011;66009;53.150;18.160;2023-04-06T12:16:42;5.10;;;3.20;;
77080;SDS011;66009;53.150;18.160;2023-04-06T12:19:08;6.10;;;3.30;;
77080;SDS011;66009;53.150;18.160;2023-04-06T12:21:35;5.20;;;2.90;;
77080;SDS011;66009;53.150;18.160;2023-04-06T12:24:04;5.60;;;3.00;;
77080;SDS011;66009;53.150;18.160;2023-04-06T12:26:31;5.40;;;3.20;;
77080;SDS011;66009;53.150;18.160;2023-04-06T12:28:59;6.10;;;3.10;;
77080;SDS011;66009;53.150;18.160;2023-04-06T12:31:34;5.50;;;3.50;;
77080;SDS011;66009;53.150;18.160;2023-04-06T12:34:02;6.70;;;3.40;;
77080;SDS011;66009;53.150;18.160;2023-04-06T12:36:29;5.50;;;3.20;;
77080;SDS011;66009;53.150;18.160;2023-04-06T12:38:57;5.40;;;3.60;;
77080;SDS011;66009;53.150;18.160;2023-04-06T12:41:24;6.00;;;3.30;;
77080;SDS011;66009;53.150;18.160;2023-04-06T12:43:51;7.10;;;3.10;;
77080;SDS011;66009;53.150;18.160;2023-04-06T12:46:18;8.00;;;3.70;;
77080;SDS011;66009;53.150;18.160;2023-04-06T12:48:45;5.90;;;3.10;;
77080;SDS011;66009;53.150;18.160;2023-04-06T12:51:12;5.40;;;3.00;;
77080;SDS011;66009;53.150;18.160;2023-04-06T12:53:39;7.40;;;3.60;;
77080;SDS011;66009;53.150;18.160;2023-04-06T12:56:16;5.30;;;3.00;;
77080;SDS011;66009;53.150;18.160;2023-04-06T12:58:44;6.60;;;3.60;;
77080;SDS011;66009;53.150;18.160;2023-04-06T13:01:11;6.20;;;3.40;;
77080;SDS011;66009;53.150;18.160;2023-04-06T13:06:06;6.10;;;3.30;;
77080;SDS011;66009;53.150;18.160;2023-04-06T13:08:37;7.70;;;3.80;;
77080;SDS011;66009;53.150;18.160;2023-04-06T13:11:05;6.10;;;3.20;;
77080;SDS011;66009;53.150;18.160;2023-04-06T13:13:35;6.60;;;3.60;;
77080;SDS011;66009;53.150;18.160;2023-04-06T13:16:04;7.40;;;4.10;;
77080;SDS011;66009;53.150;18.160;2023-04-06T13:18:34;5.50;;;3.50;;
77080;SDS011;66009;53.150;18.160;2023-04-06T13:21:04;6.30;;;3.60;;
77080;SDS011;66009;53.150;18.160;2023-04-06T13:23:32;7.20;;;3.40;;
77080;SDS011;66009;53.150;18.160;2023-04-06T13:26:02;6.70;;;3.70;;
77080;SDS011;66009;53.150;18.160;2023-04-06T13:28:31;6.50;;;3.80;;
77080;SDS011;66009;53.150;18.160;2023-04-06T13:30:59;5.50;;;3.60;;
77080;SDS011;66009;53.150;18.160;2023-04-06T13:33:27;7.20;;;3.70;;
77080;SDS011;66009;53.150;18.160;2023-04-06T13:35:54;6.60;;;3.70;;
77080;SDS011;66009;53.150;18.160;2023-04-06T13:38:21;5.40;;;3.70;;
77080;SDS011;66009;53.150;18.160;2023-04-06T13:40:50;14.80;;;4.70;;
77080;SDS011;66009;53.150;18.160;2023-04-06T13:43:17;5.40;;;3.30;;
77080;SDS011;66009;53.150;18.160;2023-04-06T13:45:50;6.50;;;3.60;;
77080;SDS011;66009;53.150;18.160;2023-04-06T13:48:18;11.10;;;3.80;;
77080;SDS011;66009;53.150;18.160;2023-04-06T13:50:45;7.00;;;4.30;;
77080;SDS011;66009;53.150;18.160;2023-04-06T13:53:14;6.70;;;4.30;;
77080;SDS011;66009;53.150;18.160;2023-04-06T13:55:41;7.30;;;3.80;;
77080;SDS011;66009;53.150;18.160;2023-04-06T13:58:07;15.10;;;5.30;;
77080;SDS011;66009;53.150;18.160;2023-04-06T14:00:34;7.00;;;4.70;;
77080;SDS011;66009;53.150;18.160;2023-04-06T14:03:02;8.40;;;4.30;;
77080;SDS011;66009;53.150;18.160;2023-04-06T14:05:32;6.60;;;3.80;;
77080;SDS011;66009;53.150;18.160;2023-04-06T14:07:59;7.40;;;3.90;;
77080;SDS011;66009;53.150;18.160;2023-04-06T14:10:26;6.80;;;3.70;;
77080;SDS011;66009;53.150;18.160;2023-04-06T14:12:53;12.70;;;4.20;;
77080;SDS011;66009;53.150;18.160;2023-04-06T14:15:20;7.30;;;4.30;;
77080;SDS011;66009;53.150;18.160;2023-04-06T14:17:48;7.20;;;4.30;;
77080;SDS011;66009;53.150;18.160;2023-04-06T14:20:15;6.70;;;3.90;;
77080;SDS011;66009;53.150;18.160;2023-04-06T14:22:41;7.00;;;4.00;;
77080;SDS011;66009;53.150;18.160;2023-04-06T14:25:11;7.10;;;4.10;;
77080;SDS011;66009;53.150;18.160;2023-04-06T14:27:38;7.10;;;3.40;;
77080;SDS011;66009;53.150;18.160;2023-04-06T14:30:06;7.30;;;4.00;;
77080;SDS011;66009;53.150;18.160;2023-04-06T14:32:33;7.30;;;3.80;;
77080;SDS011;66009;53.150;18.160;2023-04-06T14:35:00;7.30;;;4.00;;
77080;SDS011;66009;53.150;18.160;2023-04-06T14:37:26;6.60;;;4.30;;
77080;SDS011;66009;53.150;18.160;2023-04-06T14:39:53;6.90;;;3.90;;
77080;SDS011;66009;53.150;18.160;2023-04-06T14:42:20;8.50;;;3.80;;
77080;SDS011;66009;53.150;18.160;2023-04-06T14:44:46;7.20;;;4.20;;
77080;SDS011;66009;53.150;18.160;2023-04-06T14:47:14;8.80;;;4.00;;
77080;SDS011;66009;53.150;18.160;2023-04-06T14:49:47;7.70;;;4.20;;
77080;SDS011;66009;53.150;18.160;2023-04-06T14:52:16;7.80;;;3.70;;
77080;SDS011;66009;53.150;18.160;2023-04-06T14:54:43;7.00;;;3.50;;